Time;durP1;ratioP1;P1;durP2;ratioP2;P2;SDS_P1;SDS_P2;PMS_P1;PMS_P2;Temp;Humidity;BMP_temperature;BMP_pressure;BME280_temperature;BME280_humidity;BME280_pressure;Samples;Min_cycle;Max_cycle;Signal;HPM_P1;HPM_P2
2024/01/28 00:01:37;;;;;;;16.40;7.63;;;;;;;;;;4977892;28;20042;-69
2024/01/28 00:04:03;;;;;;;16.73;7.22;;;;;;;;;;4974035;28;20405;-69
2024/01/28 00:06:29;;;;;;;18.70;7.90;;;;;;;;;;4977117;28;20046;-70
2024/01/28 00:08:55;;;;;;;20.35;8.40;;;;;;;;;;4973901;28;20097;-70
2024/01/28 00:11:21;;;;;;;17.90;8.18;;;;;;;;;;4972676;28;20773;-70
2024/01/28 00:13:47;;;;;;;17.88;7.65;;;;;;;;;;4972654;28;20053;-70
2024/01/28 00:16:17;;;;;;;19.05;7.47;;;;;;;;;;4978212;28;20043;-68
2024/01/28 00:18:43;;;;;;;17.85;8.35;;;;;;;;;;4983054;28;20046;-69
2024/01/28 00:21:09;;;;;;;21.40;8.95;;;;;;;;;;4979773;28;20181;-70
2024/01/28 00:23:36;;;;;;;25.77;8.65;;;;;;;;;;4981547;28;20038;-70
2024/01/28 00:26:02;;;;;;;22.48;9.20;;;;;;;;;;4983704;28;20045;-70
2024/01/28 00:28:28;;;;;;;16.17;8.10;;;;;;;;;;4976091;28;20085;-70
2024/01/28 00:30:54;;;;;;;22.38;7.88;;;;;;;;;;4980356;28;20405;-69
2024/01/28 00:33:20;;;;;;;18.65;8.38;;;;;;;;;;4975920;28;20054;-70
2024/01/28 00:35:47;;;;;;;16.90;7.70;;;;;;;;;;4974449;28;20058;-70
2024/01/28 00:38:13;;;;;;;20.52;7.82;;;;;;;;;;4971575;28;20504;-70
2024/01/28 00:40:39;;;;;;;21.95;8.52;;;;;;;;;;4978790;28;20764;-69
2024/01/28 00:43:05;;;;;;;24.00;8.88;;;;;;;;;;4982030;28;20073;-70
2024/01/28 00:45:31;;;;;;;21.05;8.10;;;;;;;;;;4977976;28;20046;-70
2024/01/28 00:47:58;;;;;;;22.00;9.35;;;;;;;;;;4977343;28;20105;-70
2024/01/28 00:50:24;;;;;;;20.65;7.53;;;;;;;;;;4978615;28;20497;-68
2024/01/28 00:52:50;;;;;;;18.80;8.55;;;;;;;;;;4976118;28;20050;-70
2024/01/28 00:55:16;;;;;;;20.52;7.95;;;;;;;;;;4974169;28;20050;-69
2024/01/28 00:57:42;;;;;;;24.35;8.32;;;;;;;;;;4979794;28;20109;-70
2024/01/28 01:00:08;;;;;;;18.02;8.15;;;;;;;;;;4974867;28;20047;-70
2024/01/28 01:02:34;;;;;;;20.02;7.63;;;;;;;;;;4974193;28;20061;-70
2024/01/28 01:05:00;;;;;;;16.63;7.45;;;;;;;;;;4977578;28;20046;-70
2024/01/28 01:07:27;;;;;;;17.70;7.45;;;;;;;;;;4978525;28;20051;-69
2024/01/28 01:09:53;;;;;;;17.00;7.18;;;;;;;;;;4976690;28;20061;-68
2024/01/28 01:12:19;;;;;;;18.08;8.15;;;;;;;;;;4975197;28;20047;-70
2024/01/28 01:14:45;;;;;;;18.98;7.65;;;;;;;;;;4978670;28;20572;-68
2024/01/28 01:17:11;;;;;;;25.17;9.40;;;;;;;;;;4974561;28;20042;-70
2024/01/28 01:19:37;;;;;;;20.35;7.63;;;;;;;;;;4974081;28;20061;-70
2024/01/28 01:22:03;;;;;;;25.50;8.07;;;;;;;;;;4977180;28;20047;-70
2024/01/28 01:24:29;;;;;;;17.42;7.38;;;;;;;;;;4977540;28;20057;-70
2024/01/28 01:26:56;;;;;;;21.67;8.68;;;;;;;;;;4979169;28;20908;-68
2024/01/28 01:29:22;;;;;;;18.02;7.50;;;;;;;;;;4975248;28;20412;-70
2024/01/28 01:31:48;;;;;;;17.88;7.03;;;;;;;;;;4976308;28;20584;-69
2024/01/28 01:34:14;;;;;;;19.13;7.53;;;;;;;;;;4975548;28;20053;-70
2024/01/28 01:36:47;;;;;;;17.65;7.35;;;;;;;;;;4972647;28;20074;-68
2024/01/28 01:39:14;;;;;;;16.40;7.88;;;;;;;;;;4973809;28;20050;-70
2024/01/28 01:41:40;;;;;;;21.83;7.50;;;;;;;;;;4971047;28;20117;-70
2024/01/28 01:44:06;;;;;;;18.48;7.82;;;;;;;;;;4981798;28;20137;-68
2024/01/28 01:46:32;;;;;;;14.90;6.90;;;;;;;;;;4974290;28;20394;-69
2024/01/28 01:48:58;;;;;;;22.38;8.43;;;;;;;;;;4976579;28;20103;-70
2024/01/28 01:51:25;;;;;;;23.65;7.80;;;2.30;99.90;;;;;;4973443;28;20073;-70
2024/01/28 01:53:51;;;;;;;18.42;7.10;;;;;;;;;;4974247;28;20074;-70
2024/01/28 01:56:17;;;;;;;17.30;7.03;;;;;;;;;;4977043;28;20049;-70
2024/01/28 01:58:46;;;;;;;21.42;7.30;;;;;;;;;;4974933;28;20047;-70
2024/01/28 02:01:12;;;;;;;13.25;6.50;;;;;;;;;;4977214;28;20810;-70
2024/01/28 02:03:38;;;;;;;19.10;6.80;;;;;;;;;;4977849;28;20034;-70
2024/01/28 02:06:06;;;;;;;15.35;6.95;;;;;;;;;;4972160;28;20057;-70
2024/01/28 02:08:32;;;;;;;17.25;7.13;;;;;;;;;;4974704;28;20053;-68
2024/01/28 02:11:02;;;;;;;16.17;7.22;;;;;;;;;;4977082;28;20061;-70
2024/01/28 02:13:28;;;;;;;15.63;7.13;;;;;;;;;;4973535;28;20046;-70
2024/01/28 02:15:54;;;;;;;14.32;6.93;;;;;;;;;;4976026;28;20049;-70
2024/01/28 02:18:20;;;;;;;17.27;7.35;;;;;;;;;;4998232;28;20099;-70
2024/01/28 02:20:45;;;;;;;20.42;7.72;;;2.60;99.90;;;;;;4972031;28;20042;-70
2024/01/28 02:23:16;;;;;;;18.30;8.40;;;;;;;;;;4984216;28;20737;-69
2024/01/28 02:25:42;;;;;;;24.35;8.65;;;;;;;;;;4977980;28;20050;-68
2024/01/28 02:28:08;;;;;;;18.52;7.95;;;;;;;;;;4974694;28;20148;-70
2024/01/28 02:30:35;;;;;;;16.70;7.97;;;;;;;;;;4973177;28;20785;-70
2024/01/28 02:33:01;;;;;;;16.30;7.75;;;;;;;;;;4976842;28;20117;-70
2024/01/28 02:35:27;;;;;;;18.80;8.10;;;;;;;;;;4975657;28;20047;-69
2024/01/28 02:37:54;;;;;;;10.95;6.38;;;;;;;;;;4972763;28;20086;-70
2024/01/28 02:40:20;;;;;;;18.13;8.68;;;;;;;;;;4973765;28;20616;-70
2024/01/28 02:42:46;;;;;;;18.48;6.85;;;;;;;;;;4978721;28;20500;-70
2024/01/28 02:45:12;;;;;;;24.80;9.55;;;;;;;;;;4978831;28;20042;-68
2024/01/28 02:47:38;;;;;;;21.52;9.40;;;;;;;;;;4975806;28;20054;-70
2024/01/28 02:50:05;;;;;;;20.77;8.20;;;2.80;99.90;;;;;;4973664;28;20154;-70
2024/01/28 02:52:32;;;;;;;20.98;8.32;;;;;;;;;;4988148;28;20055;-70
2024/01/28 02:54:58;;;;;;;20.52;9.25;;;;;;;;;;4977182;28;20065;-68
2024/01/28 02:57:24;;;;;;;21.35;7.80;;;;;;;;;;4967441;28;20051;-70
2024/01/28 02:59:50;;;;;;;15.70;8.25;;;;;;;;;;4979907;28;20121;-70
2024/01/28 03:02:17;;;;;;;27.05;9.63;;;2.70;99.90;;;;;;4981620;28;20055;-70
2024/01/28 03:04:43;;;;;;;17.27;7.88;;;;;;;;;;4982644;28;20050;-68
2024/01/28 03:07:09;;;;;;;18.88;9.30;;;;;;;;;;4972381;28;20050;-70
2024/01/28 03:09:35;;;;;;;19.50;9.15;;;;;;;;;;4971805;28;20390;-70
2024/01/28 03:12:01;;;;;;;18.13;8.00;;;;;;;;;;4989393;28;20038;-70
2024/01/28 03:14:27;;;;;;;16.38;8.38;;;;;;;;;;4982245;28;20042;-70
2024/01/28 03:16:53;;;;;;;20.60;8.25;;;;;;;;;;4979017;28;20479;-70
2024/01/28 03:19:19;;;;;;;18.98;9.38;;;;;;;;;;4976870;28;20153;-70
2024/01/28 03:21:45;;;;;;;18.45;8.70;;;;;;;;;;4979252;28;20743;-70
2024/01/28 03:24:11;;;;;;;23.45;8.18;;;;;;;;;;4983051;28;20042;-70
2024/01/28 03:26:37;;;;;;;22.52;10.45;;;;;;;;;;4980710;28;20705;-70
2024/01/28 03:29:07;;;;;;;19.40;9.25;;;;;;;;;;4977169;28;20046;-69
2024/01/28 03:31:33;;;;;;;18.73;8.35;;;;;;;;;;4977701;28;20842;-70
2024/01/28 03:34:00;;;;;;;23.13;8.45;;;;;;;;;;4975708;28;20455;-70
2024/01/28 03:36:26;;;;;;;21.17;6.82;;;;;;;;;;4982340;28;20050;-70
2024/01/28 03:38:53;;;;;;;22.35;8.68;;;;;;;;;;4971077;28;20145;-70
2024/01/28 03:41:19;;;;;;;16.92;7.63;;;;;;;;;;4981878;28;20042;-70
2024/01/28 03:43:48;;;;;;;23.30;8.63;;;;;;;;;;4973940;28;20478;-69
2024/01/28 03:46:14;;;;;;;19.80;9.50;;;;;;;;;;4985564;28;20523;-70
2024/01/28 03:48:40;;;;;;;12.32;6.88;;;;;;;;;;4984591;28;20134;-70
2024/01/28 03:51:07;;;;;;;16.17;6.57;;;;;;;;;;4982575;28;20061;-70
2024/01/28 03:53:33;;;;;;;18.30;8.40;;;;;;;;;;4983468;28;20046;-70
2024/01/28 03:55:59;;;;;;;16.33;8.25;;;;;;;;;;4999581;28;20121;-68
2024/01/28 03:58:25;;;;;;;21.58;8.80;;;;;;;;;;4983544;28;20038;-70
2024/01/28 04:00:51;;;;;;;14.60;7.05;;;;;;;;;;4981429;28;20050;-70
2024/01/28 04:03:17;;;;;;;24.73;9.32;;;;;;;;;;4979201;28;20453;-69
2024/01/28 04:05:43;;;;;;;21.80;7.93;;;;;;;;;;4978970;28;20053;-70
2024/01/28 04:08:12;;;;;;;14.93;7.72;;;;;;;;;;4979706;28;20057;-70
2024/01/28 04:10:38;;;;;;;14.43;7.82;;;;;;;;;;4975173;28;20485;-70
2024/01/28 04:13:04;;;;;;;20.23;7.72;;;;;;;;;;4974744;28;20042;-68
2024/01/28 04:15:30;;;;;;;14.40;7.28;;;;;;;;;;4981140;28;20046;-70
2024/01/28 04:17:56;;;;;;;20.20;7.90;;;;;;;;;;4978491;28;20049;-70
2024/01/28 04:20:22;;;;;;;15.02;8.00;;;;;;;;;;4975811;28;20492;-70
2024/01/28 04:22:48;;;;;;;22.08;7.55;;;;;;;;;;4977214;28;20045;-70
2024/01/28 04:25:14;;;;;;;17.27;7.90;;;;;;;;;;4976531;28;20053;-70
2024/01/28 04:27:40;;;;;;;14.43;7.75;;;;;;;;;;4983448;28;20150;-68
2024/01/28 04:30:08;;;;;;;15.57;6.82;;;;;;;;;;4979667;28;20528;-70
2024/01/28 04:32:34;;;;;;;17.00;8.60;;;;;;;;;;4979288;28;20053;-69
2024/01/28 04:35:00;;;;;;;13.40;7.15;;;;;;;;;;4978347;28;20050;-69
2024/01/28 04:37:27;;;;;;;16.75;7.78;;;;;;;;;;4984101;28;20077;-70
2024/01/28 04:39:54;;;;;;;16.35;8.40;;;;;;;;;;4980086;28;20085;-70
2024/01/28 04:42:22;;;;;;;13.73;7.50;;;;;;;;;;4979375;28;20082;-68
2024/01/28 04:44:51;;;;;;;18.60;8.48;;;;;;;;;;4976282;28;20177;-70
2024/01/28 04:47:18;;;;;;;17.23;8.50;;;;;;;;;;4998548;28;20611;-70
2024/01/28 04:49:44;;;;;;;19.05;7.78;;;;;;;;;;4980145;28;20500;-70
2024/01/28 04:52:10;;;;;;;18.17;8.48;;;;;;;;;;4975724;28;20052;-70
2024/01/28 04:54:36;;;;;;;18.48;7.78;;;;;;;;;;4977444;28;20058;-68
2024/01/28 04:57:02;;;;;;;22.13;8.35;;;;;;;;;;4979272;28;20046;-70
2024/01/28 04:59:28;;;;;;;25.33;8.13;;;;;;;;;;4977233;28;20771;-70
2024/01/28 05:01:55;;;;;;;21.92;8.57;;;;;;;;;;4976645;28;20051;-70
2024/01/28 05:04:21;;;;;;;17.00;8.00;;;;;;;;;;4977961;28;20116;-69
2024/01/28 05:06:47;;;;;;;13.25;7.13;;;;;;;;;;4978912;28;20039;-68
2024/01/28 05:09:14;;;;;;;18.98;8.55;;;;;;;;;;4979310;28;20105;-70
2024/01/28 05:11:41;;;;;;;19.88;9.20;;;;;;;;;;4977567;28;20149;-68
2024/01/28 05:14:07;;;;;;;23.48;8.15;;;;;;;;;;4975584;28;20057;-69
2024/01/28 05:16:33;;;;;;;22.77;9.20;;;;;;;;;;4977857;28;20381;-70
2024/01/28 05:19:01;;;;;;;14.60;7.57;;;;;;;;;;4976277;28;20098;-70
2024/01/28 05:21:27;;;;;;;20.60;8.52;;;;;;;;;;4979156;28;20212;-70
2024/01/28 05:23:53;;;;;;;15.88;6.93;;;;;;;;;;4980298;28;20877;-70
2024/01/28 05:26:19;;;;;;;17.27;8.27;;;;;;;;;;4981586;28;20042;-70
2024/01/28 05:28:45;;;;;;;33.45;8.23;;;;;;;;;;4976714;28;20046;-69
2024/01/28 05:31:12;;;;;;;26.92;9.00;;;;;;;;;;4973111;28;20046;-70
2024/01/28 05:33:38;;;;;;;18.55;7.78;;;;;;;;;;4973659;28;20058;-70
2024/01/28 05:36:12;;;;;;;17.38;9.07;;;;;;;;;;4978123;28;20050;-70
2024/01/28 05:38:38;;;;;;;18.50;9.13;;;;;;;;;;4977997;28;20049;-70
2024/01/28 05:41:04;;;;;;;21.65;8.32;;;;;;;;;;4981794;28;20058;-70
2024/01/28 05:43:30;;;;;;;23.83;8.23;;;;;;;;;;4974496;28;20054;-70
2024/01/28 05:45:56;;;;;;;23.48;9.10;;;;;;;;;;4979917;28;20497;-70
2024/01/28 05:48:22;;;;;;;18.70;8.65;;;;;;;;;;4977103;28;20050;-69
2024/01/28 05:50:48;;;;;;;13.57;8.10;;;;;;;;;;4982411;28;20415;-70
2024/01/28 05:53:14;;;;;;;17.45;7.55;;;;;;;;;;4979036;28;20058;-70
2024/01/28 05:55:40;;;;;;;15.60;8.05;;;;;;;;;;4978039;28;20643;-70
2024/01/28 05:58:06;;;;;;;22.30;7.90;;;;;;;;;;4977267;28;20047;-69
2024/01/28 06:00:32;;;;;;;15.05;7.30;;;;;;;;;;4972281;28;20043;-69
2024/01/28 06:02:58;;;;;;;17.17;7.53;;;;;;;;;;4974438;28;20146;-70
2024/01/28 06:05:24;;;;;;;14.00;8.18;;;;;;;;;;4981649;28;20050;-70
2024/01/28 06:07:50;;;;;;;19.17;9.32;;;;;;;;;;4980310;28;20039;-70
2024/01/28 06:10:16;;;;;;;20.15;8.82;;;;;;;;;;4975944;28;20131;-70
2024/01/28 06:12:42;;;;;;;16.42;8.15;;;;;;;;;;4970578;28;20853;-70
2024/01/28 06:15:09;;;;;;;17.55;8.18;;;;;;;;;;4996973;28;20051;-69
2024/01/28 06:17:36;;;;;;;23.77;8.98;;;;;;;;;;4971932;28;20056;-70
2024/01/28 06:20:06;;;;;;;17.20;7.22;;;;;;;;;;4977813;28;20061;-70
2024/01/28 06:22:32;;;;;;;20.20;8.63;;;;;;;;;;4980701;28;20081;-70
2024/01/28 06:25:02;;;;;;;13.52;7.68;;;;;;;;;;4971322;28;20055;-69
2024/01/28 06:27:29;;;;;;;15.82;8.75;;;;;;;;;;4976531;28;20849;-68
2024/01/28 06:29:55;;;;;;;18.20;8.43;;;;;;;;;;4976584;28;20058;-70
2024/01/28 06:32:22;;;;;;;18.05;8.48;;;;;;;;;;4974914;28;20823;-70
2024/01/28 06:34:48;;;;;;;24.30;8.45;;;;;;;;;;4978191;28;20116;-70
2024/01/28 06:37:15;;;;;;;16.00;8.02;;;;;;;;;;4979508;28;20044;-70
2024/01/28 06:39:41;;;;;;;15.85;7.75;;;;;;;;;;4976681;28;20053;-69
2024/01/28 06:42:08;;;;;;;22.80;7.80;;;;;;;;;;4980185;28;20141;-69
2024/01/28 06:44:34;;;;;;;18.00;7.63;;;;;;;;;;4973006;28;20047;-69
2024/01/28 06:47:00;;;;;;;14.45;7.28;;;;;;;;;;4974268;28;20141;-70
2024/01/28 06:49:26;;;;;;;16.95;8.27;;;;;;;;;;4978514;28;20126;-70
2024/01/28 06:51:52;;;;;;;20.33;7.72;;;;;;;;;;4978940;28;20046;-70
2024/01/28 06:54:19;;;;;;;19.45;8.73;;;;;;;;;;4975633;28;20082;-70
2024/01/28 06:56:45;;;;;;;17.77;8.10;;;;;;;;;;4974993;28;20051;-70
2024/01/28 06:59:11;;;;;;;21.75;8.55;;;;;;;;;;4976121;28;20038;-70
2024/01/28 07:01:37;;;;;;;15.98;8.60;;;;;;;;;;4977132;28;20126;-69
2024/01/28 07:04:03;;;;;;;18.83;9.00;;;;;;;;;;4976669;28;20071;-70
2024/01/28 07:06:29;;;;;;;15.90;7.15;;;;;;;;;;4981224;28;20412;-70
2024/01/28 07:08:57;;;;;;;18.35;8.23;;;;;;;;;;4998276;28;20046;-69
2024/01/28 07:11:23;;;;;;;15.55;9.27;;;;;;;;;;4976219;28;20055;-70
2024/01/28 07:13:49;;;;;;;14.48;7.75;;;;;;;;;;4978417;28;20092;-69
2024/01/28 07:16:15;;;;;;;19.00;7.53;;;;;;;;;;4979573;28;20489;-70
2024/01/28 07:18:41;;;;;;;17.27;7.88;;;;;;;;;;4975735;28;20452;-70
2024/01/28 07:21:07;;;;;;;19.05;7.55;;;;;;;;;;4981715;28;20057;-70
2024/01/28 07:23:33;;;;;;;20.33;7.13;;;;;;;;;;4981954;28;20494;-70
2024/01/28 07:25:59;;;;;;;14.73;7.95;;;;;;;;;;4973498;28;20082;-71
2024/01/28 07:28:25;;;;;;;16.88;8.02;;;;;;;;;;4980984;28;20061;-67
2024/01/28 07:30:51;;;;;;;17.70;8.02;;;;;;;;;;4975107;28;20415;-68
2024/01/28 07:33:17;;;;;;;15.77;7.85;;;;;;;;;;4983588;28;20050;-68
2024/01/28 07:35:43;;;;;;;12.68;7.22;;;;;;;;;;4978983;28;20492;-68
2024/01/28 07:38:09;;;;;;;21.23;7.93;;;;;;;;;;4980206;28;20053;-68
2024/01/28 07:40:35;;;;;;;22.20;7.43;;;;;;;;;;4981125;28;20042;-67
2024/01/28 07:43:02;;;;;;;13.98;8.40;;;;;;;;;;4979482;28;20097;-70
2024/01/28 07:45:28;;;;;;;21.50;8.40;;;;;;;;;;4999913;28;20423;-69
2024/01/28 07:47:54;;;;;;;22.17;8.18;;;;;;;;;;4986399;28;20052;-70
2024/01/28 07:50:20;;;;;;;14.45;6.97;;;;;;;;;;4982080;28;20160;-69
2024/01/28 07:52:46;;;;;;;18.33;7.93;;;;;;;;;;4984727;28;20350;-70
2024/01/28 07:55:13;;;;;;;17.88;7.75;;;;;;;;;;4974804;28;20057;-71
2024/01/28 07:57:39;;;;;;;18.52;6.97;;;;;;;;;;4974245;28;20818;-71
2024/01/28 08:00:06;;;;;;;14.35;6.90;;;;;;;;;;4980031;28;20047;-70
2024/01/28 08:02:32;;;;;;;19.30;7.13;;;;;;;;;;4975583;28;20074;-71
2024/01/28 08:04:59;;;;;;;15.55;6.13;;;;;;;;;;4978674;28;20059;-71
2024/01/28 08:07:25;;;;;;;13.38;7.03;;;;;;;;;;4986927;28;20060;-70
2024/01/28 08:09:51;;;;;;;15.20;6.80;;;;;;;;;;4982018;28;20057;-71
2024/01/28 08:12:18;;;;;;;17.90;6.05;;;;;;;;;;4978264;28;20061;-71
2024/01/28 08:14:44;;;;;;;14.27;7.15;;;;;;;;;;4982997;28;20490;-71
2024/01/28 08:17:10;;;;;;;14.70;5.90;;;;;;;;;;4980662;28;20046;-70
2024/01/28 08:19:38;;;;;;;14.90;7.20;;;;;;;;;;4980098;28;20644;-70
2024/01/28 08:22:04;;;;;;;17.65;6.95;;;;;;;;;;4977080;28;20826;-71
2024/01/28 08:24:30;;;;;;;11.02;5.93;;;;;;;;;;4976366;28;20038;-70
2024/01/28 08:26:56;;;;;;;21.60;7.10;;;;;;;;;;4979269;28;20648;-71
2024/01/28 08:29:23;;;;;;;16.08;6.40;;;;;;;;;;4979619;28;20858;-71
2024/01/28 08:31:49;;;;;;;12.63;5.70;;;;;;;;;;4979535;28;20186;-70
2024/01/28 08:34:15;;;;;;;12.55;5.95;;;;;;;;;;4981524;28;20077;-72
2024/01/28 08:36:41;;;;;;;12.27;6.18;;;;;;;;;;4978604;28;20504;-69
2024/01/28 08:39:09;;;;;;;18.45;6.55;;;;;;;;;;4979595;28;20108;-71
2024/01/28 08:41:36;;;;;;;9.77;5.38;;;;;;;;;;4977404;28;20770;-71
2024/01/28 08:44:03;;;;;;;12.98;5.35;;;;;;;;;;4983504;28;20046;-70
2024/01/28 08:46:29;;;;;;;13.07;4.38;;;;;;;;;;4977720;28;20440;-71
2024/01/28 08:48:55;;;;;;;12.98;5.32;;;;;;;;;;4980255;28;20054;-71
2024/01/28 08:51:21;;;;;;;22.75;4.78;;;;;;;;;;4983597;28;20045;-70
2024/01/28 08:53:47;;;;;;;16.17;6.50;;;;;;;;;;4981412;28;20043;-71
2024/01/28 08:56:13;;;;;;;13.32;4.85;;;;;;;;;;4978184;28;20712;-71
2024/01/28 08:58:39;;;;;;;11.05;4.65;;;;;;;;;;4976538;28;20045;-71
2024/01/28 09:01:06;;;;;;;8.65;4.88;;;;;;;;;;4977488;28;20038;-71
2024/01/28 09:03:32;;;;;;;12.45;5.07;;;;;;;;;;4977100;28;20042;-70
2024/01/28 09:06:00;;;;;;;12.25;4.53;;;;;;;;;;4979504;28;20152;-71
2024/01/28 09:08:30;;;;;;;14.88;6.30;;;;;;;;;;4977203;28;20062;-70
2024/01/28 09:10:56;;;;;;;11.40;5.57;;;;;;;;;;4982066;28;20550;-71
2024/01/28 09:13:23;;;;;;;9.07;4.90;;;;;;;;;;4983449;28;20667;-70
2024/01/28 09:15:49;;;;;;;10.55;4.82;;;;;;;;;;4981554;28;20135;-71
2024/01/28 09:18:15;;;;;;;12.43;5.05;;;;;;;;;;4977047;28;20129;-71
2024/01/28 09:20:41;;;;;;;14.57;5.60;;;;;;;;;;4990618;28;20058;-70
2024/01/28 09:23:07;;;;;;;15.63;5.25;;;;;;;;;;4977076;28;20177;-69
2024/01/28 09:25:34;;;;;;;13.07;5.57;;;;;;;;;;4980735;28;20061;-72
2024/01/28 09:28:00;;;;;;;8.05;3.85;;;;;;;;;;4969038;28;20766;-70
2024/01/28 09:30:26;;;;;;;6.78;3.90;;;;;;;;;;4979395;28;20158;-71
2024/01/28 09:32:53;;;;;;;10.98;5.00;;;;;;;;;;4978322;28;20042;-71
2024/01/28 09:35:19;;;;;;;9.18;4.25;;;;;;;;;;4975597;28;20133;-72
2024/01/28 09:37:46;;;;;;;6.88;3.53;;;;;;;;;;4983608;28;20042;-71
2024/01/28 09:40:13;;;;;;;11.65;4.30;;;;;;;;;;4983144;28;20054;-71
2024/01/28 09:42:39;;;;;;;13.38;4.05;;;;;;;;;;4979774;28;20062;-71
2024/01/28 09:45:06;;;;;;;11.80;4.32;;;6.10;99.90;;;;;;4977064;28;20054;-71
2024/01/28 09:47:32;;;;;;;8.35;4.10;;;;;;;;;;4980056;28;20145;-71
2024/01/28 09:50:00;;;;;;;8.23;3.75;;;;;;;;;;4978174;28;20054;-70
2024/01/28 09:52:27;;;;;;;9.90;3.80;;;;;;;;;;4974147;28;20573;-71
2024/01/28 09:54:53;;;;;;;7.97;3.88;;;;;;;;;;4968899;28;20089;-71
2024/01/28 09:57:19;;;;;;;9.45;3.88;;;;;;;;;;4998110;28;20046;-69
2024/01/28 09:59:46;;;;;;;12.68;3.40;;;;;;;;;;4982377;28;20046;-70
2024/01/28 10:02:12;;;;;;;7.95;3.58;;;;;;;;;;4984182;28;20469;-71
2024/01/28 10:04:40;;;;;;;12.15;4.00;;;;;;;;;;4974165;28;20082;-71
2024/01/28 10:07:07;;;;;;;9.70;3.72;;;6.90;99.90;;;;;;4996531;28;20055;-71
2024/01/28 10:09:33;;;;;;;5.80;3.25;;;;;;;;;;4981366;28;20057;-70
2024/01/28 10:11:59;;;;;;;10.25;3.92;;;;;;;;;;4982077;28;20810;-69
2024/01/28 10:14:26;;;;;;;11.18;4.35;;;;;;;;;;4997741;28;20042;-72
2024/01/28 10:16:57;;;;;;;10.10;4.00;;;;;;;;;;4978483;28;20035;-71
2024/01/28 10:19:23;;;;;;;10.05;4.68;;;;;;;;;;4977982;28;20094;-71
2024/01/28 10:21:49;;;;;;;11.45;4.03;;;;;;;;;;4979109;28;20648;-71
2024/01/28 10:24:16;;;;;;;12.88;4.47;;;;;;;;;;4972882;28;20054;-73
2024/01/28 10:26:42;;;;;;;7.20;4.35;;;;;;;;;;4972085;28;20039;-73
2024/01/28 10:29:09;;;;;;;7.93;3.72;;;;;;;;;;4981132;28;20166;-73
2024/01/28 10:31:37;;;;;;;7.63;3.38;;;;;;;;;;4976396;28;20501;-73
2024/01/28 10:34:03;;;;;;;10.95;4.00;;;;;;;;;;4979733;28;20046;-74
2024/01/28 10:36:32;;;;;;;7.65;4.40;;;8.70;99.90;;;;;;4974578;28;20050;-73
2024/01/28 10:39:01;;;;;;;9.52;4.18;;;;;;;;;;4976208;28;20447;-73
2024/01/28 10:41:28;;;;;;;9.82;4.18;;;;;;;;;;4977907;28;20504;-74
2024/01/28 10:44:06;;;;;;;6.57;3.72;;;9.40;99.90;;;;;;4979254;28;20054;-73
2024/01/28 10:46:36;;;;;;;11.70;4.10;;;;;;;;;;4978975;28;20054;-72
2024/01/28 10:49:06;;;;;;;6.28;3.58;;;;;;;;;;4975182;28;20069;-73
2024/01/28 10:51:37;;;;;;;10.80;3.78;;;9.40;99.90;;;;;;4970583;28;20034;-72
2024/01/28 10:54:04;;;;;;;9.90;4.05;;;;;;;;;;4974640;28;20043;-73
2024/01/28 10:56:31;;;;;;;5.85;3.40;;;;;;;;;;4974131;28;20150;-72
2024/01/28 10:58:57;;;;;;;8.50;3.53;;;;;;;;;;4978868;28;20283;-73
2024/01/28 11:01:25;;;;;;;6.05;3.42;;;;;;;;;;4980907;28;20789;-73
2024/01/28 11:03:52;;;;;;;7.85;4.13;;;;;;;;;;4982283;28;20054;-71
2024/01/28 11:06:18;;;;;;;6.95;3.67;;;7.60;99.90;;;;;;4976044;28;20050;-74
2024/01/28 11:08:45;;;;;;;6.53;3.50;;;;;;;;;;4974866;28;20042;-73
2024/01/28 11:11:12;;;;;;;8.82;4.30;;;;;;;;;;4981550;28;20038;-70
2024/01/28 11:13:38;;;;;;;12.73;3.45;;;;;;;;;;4974787;28;20408;-72
2024/01/28 11:16:08;;;;;;;9.77;4.00;;;;;;;;;;4977062;28;20053;-73
2024/01/28 11:18:34;;;;;;;9.70;3.95;;;;;;;;;;4984229;28;20049;-73
2024/01/28 11:21:10;;;;;;;9.05;3.65;;;;;;;;;;4980814;28;20049;-73
2024/01/28 11:23:42;;;;;;;5.80;3.30;;;;;;;;;;4980342;28;20787;-72
2024/01/28 11:26:12;;;;;;;6.63;2.85;;;;;;;;;;4980942;28;20058;-72
2024/01/28 11:28:37;;;;;;;9.55;4.07;;;7.40;99.90;;;;;;4974716;28;20058;-73
2024/01/28 11:31:03;;;;;;;8.68;3.92;;;;;;;;;;4973472;28;20476;-73
2024/01/28 11:33:35;;;;;;;8.90;4.03;;;;;;;;;;4978664;28;20070;-72
2024/01/28 11:36:02;;;;;;;11.88;4.10;;;;;;;;;;4972818;28;20801;-72
2024/01/28 11:38:31;;;;;;;11.25;4.10;;;;;;;;;;4994792;28;20047;-73
2024/01/28 11:41:02;;;;;;;15.35;5.50;;;;;;;;;;4976340;28;20078;-73
2024/01/28 11:43:29;;;;;;;7.30;3.53;;;;;;;;;;4972978;28;20520;-73
2024/01/28 11:45:57;;;;;;;7.30;3.75;;;7.60;99.90;;;;;;4971431;28;20062;-73
2024/01/28 11:48:23;;;;;;;8.65;3.63;;;;;;;;;;4976349;28;20463;-73
2024/01/28 11:50:49;;;;;;;7.93;3.90;;;;;;;;;;4976048;28;20054;-73
2024/01/28 11:53:15;;;;;;;6.75;3.50;;;;;;;;;;4996528;28;20132;-73
2024/01/28 11:55:41;;;;;;;8.93;3.40;;;;;;;;;;4997905;28;20467;-73
2024/01/28 11:58:07;;;;;;;7.72;3.20;;;;;;;;;;4976642;28;20077;-72
2024/01/28 12:00:33;;;;;;;5.55;2.90;;;;;;;;;;4978949;28;20054;-73
2024/01/28 12:02:59;;;;;;;8.85;3.60;;;8.00;99.90;;;;;;4979189;28;20093;-73
2024/01/28 12:05:25;;;;;;;7.13;3.38;;;;;;;;;;4983168;28;20049;-73
2024/01/28 12:07:53;;;;;;;9.45;3.22;;;;;;;;;;4981109;28;20046;-73
2024/01/28 12:10:18;;;;;;;4.53;3.15;;;8.10;99.90;;;;;;4982717;28;20050;-73
2024/01/28 12:12:44;;;;;;;6.40;3.15;;;;;;;;;;4981563;28;20077;-72
2024/01/28 12:15:12;;;;;;;7.25;3.65;;;;;;;;;;4983817;28;20042;-74
2024/01/28 12:17:39;;;;;;;3.65;2.60;;;8.00;99.90;;;;;;4979543;28;20042;-73
2024/01/28 12:20:06;;;;;;;5.05;2.47;;;;;;;;;;4983683;28;20042;-73
2024/01/28 12:22:36;;;;;;;7.38;3.40;;;;;;;;;;4977578;28;20077;-74
2024/01/28 12:25:11;;;;;;;14.32;3.90;;;;;;;;;;4971157;28;20057;-73
2024/01/28 12:27:41;;;;;;;8.55;3.40;;;;;;;;;;4984426;28;20621;-72
2024/01/28 12:30:09;;;;;;;9.52;3.45;;;;;;;;;;4982684;28;20057;-73
2024/01/28 12:32:37;;;;;;;5.18;3.08;;;;;;;;;;4984015;28;20668;-74
2024/01/28 12:35:07;;;;;;;6.47;3.22;;;;;;;;;;4978838;28;20054;-73
2024/01/28 12:37:39;;;;;;;5.72;2.90;;;8.40;99.90;;;;;;4981284;28;20046;-73
2024/01/28 12:40:06;;;;;;;6.53;3.10;;;;;;;;;;4981783;28;20042;-73
2024/01/28 12:42:35;;;;;;;6.25;2.90;;;;;;;;;;4979796;28;20047;-73
2024/01/28 12:45:01;;;;;;;6.00;2.45;;;;;;;;;;4979180;28;20046;-71
2024/01/28 12:47:27;;;;;;;8.15;1.98;;;;;;;;;;4981170;28;20065;-73
2024/01/28 12:49:53;;;;;;;5.53;3.25;;;;;;;;;;4983224;28;20046;-72
2024/01/28 12:52:19;;;;;;;6.30;3.03;;;8.70;99.90;;;;;;4981579;28;20052;-73
2024/01/28 12:54:44;;;;;;;10.98;3.65;;;8.80;99.90;;;;;;4970922;28;20046;-74
2024/01/28 12:57:12;;;;;;;7.60;3.08;;;;;;;;;;4969407;28;20747;-73
2024/01/28 12:59:38;;;;;;;5.38;3.72;;;;;;;;;;4973599;28;20058;-74
2024/01/28 13:02:04;;;;;;;8.48;2.78;;;;;;;;;;4982256;28;20046;-73
2024/01/28 13:04:30;;;;;;;10.20;2.90;;;;;;;;;;4978319;28;20042;-74
2024/01/28 13:06:56;;;;;;;4.55;2.83;;;;;;;;;;4980307;28;20077;-73
2024/01/28 13:09:22;;;;;;;6.90;3.42;;;9.40;99.90;;;;;;4980474;28;20046;-74
2024/01/28 13:11:48;;;;;;;6.38;2.60;;;;;;;;;;4979761;28;20074;-72
2024/01/28 13:14:15;;;;;;;4.57;2.70;;;;;;;;;;4979994;28;20494;-73
2024/01/28 13:16:42;;;;;;;6.00;2.50;;;9.80;99.90;;;;;;4978354;28;20093;-74
2024/01/28 13:19:08;;;;;;;6.35;2.63;;;;;;;;;;4977844;28;20070;-73
2024/01/28 13:21:34;;;;;;;8.93;2.42;;;;;;;;;;4982523;28;20042;-72
2024/01/28 13:24:00;;;;;;;6.07;2.78;;;;;;;;;;4980792;28;20046;-73
2024/01/28 13:26:26;;;;;;;4.95;2.72;;;;;;;;;;4979693;28;20723;-73
2024/01/28 13:28:52;;;;;;;5.28;2.10;;;;;;;;;;4978976;28;20424;-73
2024/01/28 13:31:18;;;;;;;3.78;2.47;;;;;;;;;;4974759;28;20054;-73
2024/01/28 13:33:44;;;;;;;4.15;2.35;;;;;;;;;;4980539;28;20100;-72
2024/01/28 13:36:11;;;;;;;11.73;3.25;;;10.60;99.90;;;;;;4980963;28;20567;-73
2024/01/28 13:38:37;;;;;;;6.00;2.80;;;;;;;;;;4982393;28;20246;-73
2024/01/28 13:41:03;;;;;;;8.27;2.42;;;;;;;;;;4980260;28;20397;-73
2024/01/28 13:43:34;;;;;;;4.32;2.72;;;;;;;;;;4983250;28;20058;-73
2024/01/28 13:46:00;;;;;;;5.45;2.33;;;;;;;;;;4995811;28;20065;-72
2024/01/28 13:48:26;;;;;;;8.43;2.20;;;11.50;99.90;;;;;;4980345;28;20046;-74
2024/01/28 13:50:52;;;;;;;6.82;3.03;;;;;;;;;;4980636;28;20085;-74
2024/01/28 13:53:18;;;;;;;3.70;2.70;;;;;;;;;;4980889;28;20085;-72
2024/01/28 13:55:43;;;;;;;7.57;3.33;;;11.00;99.90;;;;;;4976868;28;20128;-74
2024/01/28 13:58:09;;;;;;;4.07;2.20;;;;;;;;;;4978181;28;20038;-73
2024/01/28 14:00:35;;;;;;;6.30;3.03;;;;;;;;;;4976892;28;20454;-73
2024/01/28 14:03:01;;;;;;;5.97;2.50;;;10.40;99.90;;;;;;4975338;28;20042;-73
2024/01/28 14:05:27;;;;;;;5.20;2.20;;;;;;;;;;4980114;28;20054;-73
2024/01/28 14:07:52;;;;;;;4.38;2.50;;;10.10;99.90;;;;;;4978940;28;20054;-74
2024/01/28 14:10:18;;;;;;;4.03;2.47;;;;;;;;;;4982859;28;20061;-73
2024/01/28 14:12:44;;;;;;;5.03;2.70;;;;;;;;;;4980261;28;20723;-74
2024/01/28 14:15:11;;;;;;;5.38;2.67;;;;;;;;;;4983214;28;20046;-72
2024/01/28 14:17:36;;;;;;;3.72;2.05;;;9.70;99.90;;;;;;4989089;28;20072;-73
2024/01/28 14:20:05;;;;;;;6.53;2.75;;;;;;;;;;4979859;28;20048;-73